sensor_id;sensor_type;location;lat;lon;timestamp;P1;durP1;ratioP1;P2;durP2;ratioP2
64857;SDS011;51335;51.148;6.950;2023-03-23T00:00:22;1.80;;;1.27;;
64857;SDS011;51335;51.148;6.950;2023-03-23T00:00:52;2.47;;;1.48;;
64857;SDS011;51335;51.148;6.950;2023-03-23T00:01:23;4.85;;;1.50;;
64857;SDS011;51335;51.148;6.950;2023-03-23T00:01:53;6.05;;;1.33;;
64857;SDS011;51335;51.148;6.950;2023-03-23T00:02:24;2.58;;;1.30;;
64857;SDS011;51335;51.148;6.950;2023-03-23T00:02:55;5.10;;;1.70;;
64857;SDS011;51335;51.148;6.950;2023-03-23T00:03:25;3.33;;;1.40;;
64857;SDS011;51335;51.148;6.950;2023-03-23T00:03:56;2.90;;;1.40;;
64857;SDS011;51335;51.148;6.950;2023-03-23T00:04:27;2.47;;;1.50;;
64857;SDS011;51335;51.148;6.950;2023-03-23T00:04:58;2.67;;;1.52;;
64857;SDS011;51335;51.148;6.950;2023-03-23T00:05:28;3.95;;;1.50;;
64857;SDS011;51335;51.148;6.950;2023-03-23T00:05:59;2.28;;;1.50;;
64857;SDS011;51335;51.148;6.950;2023-03-23T00:06:29;3.25;;;1.38;;
64857;SDS011;51335;51.148;6.950;2023-03-23T00:07:00;3.20;;;1.48;;
64857;SDS011;51335;51.148;6.950;2023-03-23T00:07:30;3.15;;;1.50;;
64857;SDS011;51335;51.148;6.950;2023-03-23T00:08:00;3.72;;;1.38;;
64857;SDS011;51335;51.148;6.950;2023-03-23T00:08:31;4.43;;;1.50;;
64857;SDS011;51335;51.148;6.950;2023-03-23T00:09:05;3.53;;;1.52;;
64857;SDS011;51335;51.148;6.950;2023-03-23T00:09:35;4.22;;;1.60;;
64857;SDS011;51335;51.148;6.950;2023-03-23T00:10:05;5.10;;;1.52;;
64857;SDS011;51335;51.148;6.950;2023-03-23T00:10:36;4.80;;;1.63;;
64857;SDS011;51335;51.148;6.950;2023-03-23T00:11:06;3.47;;;1.50;;
64857;SDS011;51335;51.148;6.950;2023-03-23T00:11:36;3.47;;;1.40;;
64857;SDS011;51335;51.148;6.950;2023-03-23T00:12:07;3.38;;;1.40;;
64857;SDS011;51335;51.148;6.950;2023-03-23T00:12:37;4.10;;;1.52;;
64857;SDS011;51335;51.148;6.950;2023-03-23T00:13:08;5.30;;;1.63;;
64857;SDS011;51335;51.148;6.950;2023-03-23T00:13:38;3.40;;;1.35;;
64857;SDS011;51335;51.148;6.950;2023-03-23T00:14:09;3.72;;;1.65;;
64857;SDS011;51335;51.148;6.950;2023-03-23T00:14:40;2.45;;;1.38;;
64857;SDS011;51335;51.148;6.950;2023-03-23T00:15:10;3.72;;;1.55;;
64857;SDS011;51335;51.148;6.950;2023-03-23T00:15:40;2.50;;;1.35;;
64857;SDS011;51335;51.148;6.950;2023-03-23T00:16:11;3.88;;;1.52;;
64857;SDS011;51335;51.148;6.950;2023-03-23T00:16:42;1.75;;;1.27;;
64857;SDS011;51335;51.148;6.950;2023-03-23T00:17:13;4.50;;;1.42;;
64857;SDS011;51335;51.148;6.950;2023-03-23T00:17:43;2.58;;;1.40;;
64857;SDS011;51335;51.148;6.950;2023-03-23T00:18:14;2.92;;;1.30;;
64857;SDS011;51335;51.148;6.950;2023-03-23T00:19:19;2.50;;;1.33;;
64857;SDS011;51335;51.148;6.950;2023-03-23T00:19:49;3.83;;;1.83;;
64857;SDS011;51335;51.148;6.950;2023-03-23T00:20:19;2.75;;;1.33;;
64857;SDS011;51335;51.148;6.950;2023-03-23T00:20:51;4.22;;;1.45;;
64857;SDS011;51335;51.148;6.950;2023-03-23T00:21:23;3.33;;;1.40;;
64857;SDS011;51335;51.148;6.950;2023-03-23T00:21:55;4.22;;;1.52;;
64857;SDS011;51335;51.148;6.950;2023-03-23T00:22:26;3.05;;;1.50;;
64857;SDS011;51335;51.148;6.950;2023-03-23T00:22:57;2.53;;;1.42;;
64857;SDS011;51335;51.148;6.950;2023-03-23T00:23:28;3.75;;;1.50;;
64857;SDS011;51335;51.148;6.950;2023-03-23T00:24:05;2.50;;;1.40;;
64857;SDS011;51335;51.148;6.950;2023-03-23T00:24:37;3.15;;;1.50;;
64857;SDS011;51335;51.148;6.950;2023-03-23T00:25:07;3.15;;;1.42;;
64857;SDS011;51335;51.148;6.950;2023-03-23T00:25:38;3.40;;;1.40;;
64857;SDS011;51335;51.148;6.950;2023-03-23T00:26:08;2.55;;;1.42;;
64857;SDS011;51335;51.148;6.950;2023-03-23T00:26:39;2.97;;;1.60;;
64857;SDS011;51335;51.148;6.950;2023-03-23T00:27:10;2.10;;;1.35;;
64857;SDS011;51335;51.148;6.950;2023-03-23T00:27:41;3.17;;;1.30;;
64857;SDS011;51335;51.148;6.950;2023-03-23T00:28:11;3.53;;;1.40;;
64857;SDS011;51335;51.148;6.950;2023-03-23T00:28:41;3.03;;;1.48;;
64857;SDS011;51335;51.148;6.950;2023-03-23T00:29:46;3.47;;;1.40;;
64857;SDS011;51335;51.148;6.950;2023-03-23T00:30:16;1.90;;;1.20;;
64857;SDS011;51335;51.148;6.950;2023-03-23T00:30:46;2.83;;;1.40;;
64857;SDS011;51335;51.148;6.950;2023-03-23T00:31:17;2.38;;;1.50;;
64857;SDS011;51335;51.148;6.950;2023-03-23T00:31:47;5.15;;;1.42;;
64857;SDS011;51335;51.148;6.950;2023-03-23T00:32:19;2.15;;;1.30;;
64857;SDS011;51335;51.148;6.950;2023-03-23T00:32:50;3.35;;;1.50;;
64857;SDS011;51335;51.148;6.950;2023-03-23T00:33:20;5.10;;;1.40;;
64857;SDS011;51335;51.148;6.950;2023-03-23T00:33:50;2.55;;;1.30;;
64857;SDS011;51335;51.148;6.950;2023-03-23T00:34:21;2.30;;;1.30;;
64857;SDS011;51335;51.148;6.950;2023-03-23T00:34:53;3.95;;;1.60;;
64857;SDS011;51335;51.148;6.950;2023-03-23T00:35:23;3.25;;;1.33;;
64857;SDS011;51335;51.148;6.950;2023-03-23T00:35:54;2.58;;;1.30;;
64857;SDS011;51335;51.148;6.950;2023-03-23T00:36:25;3.17;;;1.38;;
64857;SDS011;51335;51.148;6.950;2023-03-23T00:36:55;3.47;;;1.42;;
64857;SDS011;51335;51.148;6.950;2023-03-23T00:37:25;2.53;;;1.42;;
64857;SDS011;51335;51.148;6.950;2023-03-23T00:37:56;2.70;;;1.20;;
64857;SDS011;51335;51.148;6.950;2023-03-23T00:38:26;2.97;;;1.60;;
64857;SDS011;51335;51.148;6.950;2023-03-23T00:38:57;4.10;;;1.60;;
64857;SDS011;51335;51.148;6.950;2023-03-23T00:39:28;3.97;;;1.40;;
64857;SDS011;51335;51.148;6.950;2023-03-23T00:39:58;3.38;;;1.30;;
64857;SDS011;51335;51.148;6.950;2023-03-23T00:40:28;2.67;;;1.40;;
64857;SDS011;51335;51.148;6.950;2023-03-23T00:40:59;2.65;;;1.40;;
64857;SDS011;51335;51.148;6.950;2023-03-23T00:41:29;2.42;;;1.55;;
64857;SDS011;51335;51.148;6.950;2023-03-23T00:42:00;2.92;;;1.40;;
64857;SDS011;51335;51.148;6.950;2023-03-23T00:42:30;2.85;;;1.40;;
64857;SDS011;51335;51.148;6.950;2023-03-23T00:43:00;3.42;;;1.65;;
64857;SDS011;51335;51.148;6.950;2023-03-23T00:43:32;2.60;;;1.40;;
64857;SDS011;51335;51.148;6.950;2023-03-23T00:44:03;3.10;;;1.60;;
64857;SDS011;51335;51.148;6.950;2023-03-23T00:44:33;2.70;;;1.48;;
64857;SDS011;51335;51.148;6.950;2023-03-23T00:45:03;2.55;;;1.40;;
64857;SDS011;51335;51.148;6.950;2023-03-23T00:45:34;2.08;;;1.45;;
64857;SDS011;51335;51.148;6.950;2023-03-23T00:46:04;2.88;;;1.33;;
64857;SDS011;51335;51.148;6.950;2023-03-23T00:46:35;4.20;;;1.40;;
64857;SDS011;51335;51.148;6.950;2023-03-23T00:47:05;1.48;;;1.25;;
64857;SDS011;51335;51.148;6.950;2023-03-23T00:47:37;3.45;;;1.40;;
64857;SDS011;51335;51.148;6.950;2023-03-23T00:48:07;2.80;;;1.38;;
64857;SDS011;51335;51.148;6.950;2023-03-23T00:48:37;4.28;;;1.40;;
64857;SDS011;51335;51.148;6.950;2023-03-23T00:49:08;3.22;;;1.40;;
64857;SDS011;51335;51.148;6.950;2023-03-23T00:49:38;2.92;;;1.30;;
64857;SDS011;51335;51.148;6.950;2023-03-23T00:50:08;1.70;;;1.40;;
64857;SDS011;51335;51.148;6.950;2023-03-23T00:50:39;4.22;;;1.40;;
64857;SDS011;51335;51.148;6.950;2023-03-23T00:51:09;2.63;;;1.30;;
64857;SDS011;51335;51.148;6.950;2023-03-23T00:51:40;2.72;;;1.27;;
64857;SDS011;51335;51.148;6.950;2023-03-23T00:52:11;3.95;;;1.60;;
64857;SDS011;51335;51.148;6.950;2023-03-23T00:52:41;2.72;;;1.30;;
64857;SDS011;51335;51.148;6.950;2023-03-23T00:53:12;3.05;;;1.48;;
64857;SDS011;51335;51.148;6.950;2023-03-23T00:53:42;4.43;;;1.40;;
64857;SDS011;51335;51.148;6.950;2023-03-23T00:54:13;2.85;;;1.60;;
64857;SDS011;51335;51.148;6.950;2023-03-23T00:54:43;4.45;;;1.42;;
64857;SDS011;51335;51.148;6.950;2023-03-23T00:55:14;2.90;;;1.58;;
64857;SDS011;51335;51.148;6.950;2023-03-23T00:55:44;3.35;;;1.65;;
64857;SDS011;51335;51.148;6.950;2023-03-23T00:56:16;2.53;;;1.42;;
64857;SDS011;51335;51.148;6.950;2023-03-23T00:56:46;4.55;;;1.80;;
64857;SDS011;51335;51.148;6.950;2023-03-23T00:57:17;3.33;;;1.20;;
64857;SDS011;51335;51.148;6.950;2023-03-23T00:57:47;2.72;;;1.40;;
64857;SDS011;51335;51.148;6.950;2023-03-23T00:58:18;4.05;;;1.70;;
64857;SDS011;51335;51.148;6.950;2023-03-23T00:58:48;3.28;;;1.58;;
64857;SDS011;51335;51.148;6.950;2023-03-23T00:59:18;2.70;;;1.40;;
64857;SDS011;51335;51.148;6.950;2023-03-23T00:59:50;4.22;;;1.70;;
64857;SDS011;51335;51.148;6.950;2023-03-23T01:00:21;6.40;;;1.60;;
64857;SDS011;51335;51.148;6.950;2023-03-23T01:00:52;2.53;;;1.30;;
64857;SDS011;51335;51.148;6.950;2023-03-23T01:01:23;5.07;;;1.70;;
64857;SDS011;51335;51.148;6.950;2023-03-23T01:01:53;3.70;;;1.60;;
64857;SDS011;51335;51.148;6.950;2023-03-23T01:02:24;2.53;;;1.50;;
64857;SDS011;51335;51.148;6.950;2023-03-23T01:02:54;3.72;;;1.50;;
64857;SDS011;51335;51.148;6.950;2023-03-23T01:03:24;2.25;;;1.30;;
64857;SDS011;51335;51.148;6.950;2023-03-23T01:03:55;4.55;;;1.60;;
64857;SDS011;51335;51.148;6.950;2023-03-23T01:04:25;3.13;;;1.35;;
64857;SDS011;51335;51.148;6.950;2023-03-23T01:04:55;2.58;;;1.40;;
64857;SDS011;51335;51.148;6.950;2023-03-23T01:05:26;1.92;;;1.42;;
64857;SDS011;51335;51.148;6.950;2023-03-23T01:05:56;2.42;;;1.40;;
64857;SDS011;51335;51.148;6.950;2023-03-23T01:06:27;3.70;;;1.45;;
64857;SDS011;51335;51.148;6.950;2023-03-23T01:06:58;2.38;;;1.45;;
64857;SDS011;51335;51.148;6.950;2023-03-23T01:07:28;3.08;;;1.83;;
64857;SDS011;51335;51.148;6.950;2023-03-23T01:07:58;4.60;;;1.50;;
64857;SDS011;51335;51.148;6.950;2023-03-23T01:08:28;3.42;;;1.60;;
64857;SDS011;51335;51.148;6.950;2023-03-23T01:08:59;5.18;;;1.35;;
64857;SDS011;51335;51.148;6.950;2023-03-23T01:09:29;3.35;;;1.30;;
64857;SDS011;51335;51.148;6.950;2023-03-23T01:09:59;4.68;;;1.50;;
64857;SDS011;51335;51.148;6.950;2023-03-23T01:10:30;3.28;;;1.60;;
64857;SDS011;51335;51.148;6.950;2023-03-23T01:11:02;3.80;;;1.50;;
64857;SDS011;51335;51.148;6.950;2023-03-23T01:11:34;2.03;;;1.30;;
64857;SDS011;51335;51.148;6.950;2023-03-23T01:12:05;3.80;;;1.60;;
64857;SDS011;51335;51.148;6.950;2023-03-23T01:12:35;3.88;;;1.40;;
64857;SDS011;51335;51.148;6.950;2023-03-23T01:13:06;1.70;;;1.33;;
64857;SDS011;51335;51.148;6.950;2023-03-23T01:13:37;3.13;;;1.48;;
64857;SDS011;51335;51.148;6.950;2023-03-23T01:14:07;5.07;;;1.65;;
64857;SDS011;51335;51.148;6.950;2023-03-23T01:14:39;2.97;;;1.30;;
64857;SDS011;51335;51.148;6.950;2023-03-23T01:15:12;4.07;;;1.58;;
64857;SDS011;51335;51.148;6.950;2023-03-23T01:15:44;2.70;;;1.38;;
64857;SDS011;51335;51.148;6.950;2023-03-23T01:16:15;2.92;;;1.30;;
64857;SDS011;51335;51.148;6.950;2023-03-23T01:16:46;3.00;;;1.35;;
64857;SDS011;51335;51.148;6.950;2023-03-23T01:17:16;2.88;;;1.30;;
64857;SDS011;51335;51.148;6.950;2023-03-23T01:17:47;3.10;;;1.48;;
64857;SDS011;51335;51.148;6.950;2023-03-23T01:18:17;2.00;;;1.17;;
64857;SDS011;51335;51.148;6.950;2023-03-23T01:18:47;2.60;;;1.40;;
64857;SDS011;51335;51.148;6.950;2023-03-23T01:19:18;1.40;;;1.23;;
64857;SDS011;51335;51.148;6.950;2023-03-23T01:19:48;6.88;;;1.50;;
64857;SDS011;51335;51.148;6.950;2023-03-23T01:20:18;3.83;;;1.40;;
64857;SDS011;51335;51.148;6.950;2023-03-23T01:20:49;2.47;;;1.40;;
64857;SDS011;51335;51.148;6.950;2023-03-23T01:21:20;4.00;;;1.33;;
64857;SDS011;51335;51.148;6.950;2023-03-23T01:21:50;5.45;;;1.40;;
64857;SDS011;51335;51.148;6.950;2023-03-23T01:22:21;2.05;;;1.38;;
64857;SDS011;51335;51.148;6.950;2023-03-23T01:22:51;2.40;;;1.30;;
64857;SDS011;51335;51.148;6.950;2023-03-23T01:23:22;3.15;;;1.40;;
64857;SDS011;51335;51.148;6.950;2023-03-23T01:23:52;3.00;;;1.67;;
64857;SDS011;51335;51.148;6.950;2023-03-23T01:24:23;2.83;;;1.38;;
64857;SDS011;51335;51.148;6.950;2023-03-23T01:24:53;2.45;;;1.35;;
64857;SDS011;51335;51.148;6.950;2023-03-23T01:25:23;4.95;;;1.48;;
64857;SDS011;51335;51.148;6.950;2023-03-23T01:25:53;3.17;;;1.50;;
64857;SDS011;51335;51.148;6.950;2023-03-23T01:26:25;2.80;;;1.50;;
64857;SDS011;51335;51.148;6.950;2023-03-23T01:26:56;2.35;;;1.60;;
64857;SDS011;51335;51.148;6.950;2023-03-23T01:27:26;3.33;;;1.50;;
64857;SDS011;51335;51.148;6.950;2023-03-23T01:27:57;2.17;;;1.30;;
64857;SDS011;51335;51.148;6.950;2023-03-23T01:28:28;1.98;;;1.20;;
64857;SDS011;51335;51.148;6.950;2023-03-23T01:28:58;3.45;;;1.52;;
64857;SDS011;51335;51.148;6.950;2023-03-23T01:29:29;3.25;;;1.40;;
64857;SDS011;51335;51.148;6.950;2023-03-23T01:29:59;3.20;;;1.45;;
64857;SDS011;51335;51.148;6.950;2023-03-23T01:30:29;2.65;;;1.40;;
64857;SDS011;51335;51.148;6.950;2023-03-23T01:31:01;2.97;;;1.25;;
64857;SDS011;51335;51.148;6.950;2023-03-23T01:31:36;2.55;;;1.17;;
64857;SDS011;51335;51.148;6.950;2023-03-23T01:32:06;2.22;;;1.48;;
64857;SDS011;51335;51.148;6.950;2023-03-23T01:32:36;3.03;;;1.30;;
64857;SDS011;51335;51.148;6.950;2023-03-23T01:33:07;3.05;;;1.50;;
64857;SDS011;51335;51.148;6.950;2023-03-23T01:33:37;1.75;;;1.38;;
64857;SDS011;51335;51.148;6.950;2023-03-23T01:34:08;2.15;;;1.27;;
64857;SDS011;51335;51.148;6.950;2023-03-23T01:34:39;3.20;;;1.40;;
64857;SDS011;51335;51.148;6.950;2023-03-23T01:35:09;1.65;;;1.20;;
64857;SDS011;51335;51.148;6.950;2023-03-23T01:35:39;3.38;;;1.42;;
64857;SDS011;51335;51.148;6.950;2023-03-23T01:36:11;4.03;;;1.50;;
64857;SDS011;51335;51.148;6.950;2023-03-23T01:36:46;5.35;;;1.80;;
64857;SDS011;51335;51.148;6.950;2023-03-23T01:37:16;3.20;;;1.50;;
64857;SDS011;51335;51.148;6.950;2023-03-23T01:37:46;1.77;;;1.15;;
64857;SDS011;51335;51.148;6.950;2023-03-23T01:38:17;3.65;;;1.50;;
64857;SDS011;51335;51.148;6.950;2023-03-23T01:38:47;3.63;;;1.30;;
64857;SDS011;51335;51.148;6.950;2023-03-23T01:39:19;2.78;;;1.20;;
64857;SDS011;51335;51.148;6.950;2023-03-23T01:39:50;3.97;;;1.40;;
64857;SDS011;51335;51.148;6.950;2023-03-23T01:40:20;3.22;;;1.55;;
64857;SDS011;51335;51.148;6.950;2023-03-23T01:40:50;3.45;;;1.50;;
64857;SDS011;51335;51.148;6.950;2023-03-23T01:41:21;4.30;;;1.65;;
64857;SDS011;51335;51.148;6.950;2023-03-23T01:41:52;4.60;;;1.40;;
64857;SDS011;51335;51.148;6.950;2023-03-23T01:42:23;2.00;;;1.50;;
64857;SDS011;51335;51.148;6.950;2023-03-23T01:43:08;2.88;;;1.50;;
64857;SDS011;51335;51.148;6.950;2023-03-23T01:45:49;3.67;;;1.52;;
64857;SDS011;51335;51.148;6.950;2023-03-23T01:46:19;1.95;;;1.40;;
64857;SDS011;51335;51.148;6.950;2023-03-23T01:46:49;2.58;;;1.40;;
64857;SDS011;51335;51.148;6.950;2023-03-23T01:47:20;2.50;;;1.63;;
64857;SDS011;51335;51.148;6.950;2023-03-23T01:47:54;2.83;;;1.80;;
64857;SDS011;51335;51.148;6.950;2023-03-23T01:48:34;4.65;;;1.40;;
64857;SDS011;51335;51.148;6.950;2023-03-23T01:49:17;3.17;;;1.48;;
64857;SDS011;51335;51.148;6.950;2023-03-23T01:49:51;2.97;;;1.48;;
64857;SDS011;51335;51.148;6.950;2023-03-23T01:50:22;4.82;;;1.77;;
64857;SDS011;51335;51.148;6.950;2023-03-23T01:50:58;4.43;;;1.65;;
64857;SDS011;51335;51.148;6.950;2023-03-23T01:51:32;3.28;;;1.58;;
64857;SDS011;51335;51.148;6.950;2023-03-23T01:52:18;3.25;;;1.52;;
64857;SDS011;51335;51.148;6.950;2023-03-23T01:52:52;3.17;;;1.40;;
64857;SDS011;51335;51.148;6.950;2023-03-23T01:53:26;2.05;;;1.48;;
64857;SDS011;51335;51.148;6.950;2023-03-23T01:54:00;3.60;;;1.52;;
64857;SDS011;51335;51.148;6.950;2023-03-23T01:54:34;2.92;;;1.58;;
64857;SDS011;51335;51.148;6.950;2023-03-23T01:55:06;2.47;;;1.50;;
64857;SDS011;51335;51.148;6.950;2023-03-23T01:55:37;4.25;;;2.00;;
64857;SDS011;51335;51.148;6.950;2023-03-23T01:56:10;4.10;;;1.67;;
64857;SDS011;51335;51.148;6.950;2023-03-23T01:56:45;2.88;;;1.70;;
64857;SDS011;51335;51.148;6.950;2023-03-23T01:57:19;2.70;;;1.60;;
64857;SDS011;51335;51.148;6.950;2023-03-23T01:57:53;2.20;;;1.60;;
64857;SDS011;51335;51.148;6.950;2023-03-23T01:58:26;3.40;;;1.63;;
64857;SDS011;51335;51.148;6.950;2023-03-23T01:58:58;4.38;;;1.80;;
64857;SDS011;51335;51.148;6.950;2023-03-23T01:59:29;3.47;;;1.83;;
64857;SDS011;51335;51.148;6.950;2023-03-23T02:00:03;3.97;;;1.60;;
64857;SDS011;51335;51.148;6.950;2023-03-23T02:00:36;3.03;;;1.90;;
64857;SDS011;51335;51.148;6.950;2023-03-23T02:01:09;3.35;;;1.70;;
64857;SDS011;51335;51.148;6.950;2023-03-23T02:01:41;3.08;;;1.70;;
64857;SDS011;51335;51.148;6.950;2023-03-23T02:02:12;5.20;;;1.92;;
64857;SDS011;51335;51.148;6.950;2023-03-23T02:02:45;4.50;;;2.10;;
64857;SDS011;51335;51.148;6.950;2023-03-23T02:03:17;2.63;;;1.50;;
64857;SDS011;51335;51.148;6.950;2023-03-23T02:03:48;3.85;;;1.65;;
64857;SDS011;51335;51.148;6.950;2023-03-23T02:04:18;4.40;;;2.00;;
64857;SDS011;51335;51.148;6.950;2023-03-23T02:04:50;3.30;;;1.70;;
64857;SDS011;51335;51.148;6.950;2023-03-23T02:05:24;4.00;;;1.88;;
64857;SDS011;51335;51.148;6.950;2023-03-23T02:06:03;3.58;;;1.65;;
64857;SDS011;51335;51.148;6.950;2023-03-23T02:06:34;4.82;;;1.75;;
64857;SDS011;51335;51.148;6.950;2023-03-23T02:07:04;2.90;;;1.70;;
64857;SDS011;51335;51.148;6.950;2023-03-23T02:07:34;2.45;;;1.60;;
64857;SDS011;51335;51.148;6.950;2023-03-23T02:08:04;4.78;;;1.88;;
64857;SDS011;51335;51.148;6.950;2023-03-23T02:08:37;2.65;;;1.83;;
64857;SDS011;51335;51.148;6.950;2023-03-23T02:09:08;2.45;;;1.50;;
64857;SDS011;51335;51.148;6.950;2023-03-23T02:09:39;4.47;;;1.90;;
64857;SDS011;51335;51.148;6.950;2023-03-23T02:10:09;3.50;;;1.63;;
64857;SDS011;51335;51.148;6.950;2023-03-23T02:10:40;4.40;;;2.10;;
64857;SDS011;51335;51.148;6.950;2023-03-23T02:11:20;2.53;;;1.60;;
64857;SDS011;51335;51.148;6.950;2023-03-23T02:11:51;2.40;;;1.60;;
64857;SDS011;51335;51.148;6.950;2023-03-23T02:12:23;4.45;;;2.00;;
64857;SDS011;51335;51.148;6.950;2023-03-23T02:12:53;3.30;;;1.90;;
64857;SDS011;51335;51.148;6.950;2023-03-23T02:13:24;3.47;;;1.83;;
64857;SDS011;51335;51.148;6.950;2023-03-23T02:13:55;3.05;;;1.90;;
64857;SDS011;51335;51.148;6.950;2023-03-23T02:14:26;3.55;;;2.08;;
64857;SDS011;51335;51.148;6.950;2023-03-23T02:14:58;4.32;;;1.88;;
64857;SDS011;51335;51.148;6.950;2023-03-23T02:15:39;3.45;;;1.75;;
64857;SDS011;51335;51.148;6.950;2023-03-23T02:16:15;6.25;;;1.75;;
64857;SDS011;51335;51.148;6.950;2023-03-23T02:17:05;2.88;;;1.73;;
64857;SDS011;51335;51.148;6.950;2023-03-23T02:17:48;3.85;;;1.70;;
64857;SDS011;51335;51.148;6.950;2023-03-23T02:21:26;2.95;;;2.00;;
64857;SDS011;51335;51.148;6.950;2023-03-23T02:22:22;3.10;;;1.75;;
64857;SDS011;51335;51.148;6.950;2023-03-23T02:27:28;2.72;;;2.03;;
64857;SDS011;51335;51.148;6.950;2023-03-23T02:28:31;2.65;;;2.10;;
64857;SDS011;51335;51.148;6.950;2023-03-23T02:29:21;3.80;;;2.00;;
64857;SDS011;51335;51.148;6.950;2023-03-23T02:31:11;4.28;;;1.95;;
64857;SDS011;51335;51.148;6.950;2023-03-23T02:34:00;2.35;;;1.80;;
64857;SDS011;51335;51.148;6.950;2023-03-23T02:34:41;3.58;;;1.90;;
64857;SDS011;51335;51.148;6.950;2023-03-23T02:35:18;4.88;;;2.08;;
64857;SDS011;51335;51.148;6.950;2023-03-23T02:36:44;4.80;;;2.05;;
64857;SDS011;51335;51.148;6.950;2023-03-23T02:37:20;3.75;;;1.90;;
64857;SDS011;51335;51.148;6.950;2023-03-23T02:38:16;2.42;;;1.80;;
64857;SDS011;51335;51.148;6.950;2023-03-23T02:38:50;3.88;;;1.92;;
64857;SDS011;51335;51.148;6.950;2023-03-23T02:39:27;3.15;;;1.88;;
64857;SDS011;51335;51.148;6.950;2023-03-23T02:40:22;4.65;;;1.90;;
64857;SDS011;51335;51.148;6.950;2023-03-23T02:40:54;4.13;;;1.98;;
64857;SDS011;51335;51.148;6.950;2023-03-23T02:41:28;4.43;;;1.80;;
64857;SDS011;51335;51.148;6.950;2023-03-23T02:42:07;3.40;;;2.08;;
64857;SDS011;51335;51.148;6.950;2023-03-23T02:42:41;3.40;;;1.80;;
64857;SDS011;51335;51.148;6.950;2023-03-23T02:43:14;3.97;;;2.17;;
64857;SDS011;51335;51.148;6.950;2023-03-23T02:43:46;4.30;;;2.10;;
64857;SDS011;51335;51.148;6.950;2023-03-23T02:44:18;4.13;;;2.40;;
64857;SDS011;51335;51.148;6.950;2023-03-23T02:44:49;4.30;;;2.10;;
64857;SDS011;51335;51.148;6.950;2023-03-23T02:45:21;2.08;;;1.70;;
64857;SDS011;51335;51.148;6.950;2023-03-23T02:45:53;3.80;;;2.08;;
64857;SDS011;51335;51.148;6.950;2023-03-23T02:46:26;3.58;;;1.90;;
64857;SDS011;51335;51.148;6.950;2023-03-23T02:46:57;4.53;;;2.20;;
64857;SDS011;51335;51.148;6.950;2023-03-23T02:47:30;3.08;;;1.80;;
64857;SDS011;51335;51.148;6.950;2023-03-23T02:48:03;3.03;;;2.10;;
64857;SDS011;51335;51.148;6.950;2023-03-23T02:48:35;3.40;;;2.20;;
64857;SDS011;51335;51.148;6.950;2023-03-23T02:49:06;5.60;;;2.30;;
64857;SDS011;51335;51.148;6.950;2023-03-23T02:49:39;3.78;;;2.20;;
64857;SDS011;51335;51.148;6.950;2023-03-23T02:50:13;4.45;;;2.28;;
64857;SDS011;51335;51.148;6.950;2023-03-23T02:50:47;4.97;;;2.10;;
64857;SDS011;51335;51.148;6.950;2023-03-23T02:51:20;4.75;;;2.50;;
64857;SDS011;51335;51.148;6.950;2023-03-23T02:51:53;3.50;;;2.03;;
64857;SDS011;51335;51.148;6.950;2023-03-23T02:52:30;4.15;;;2.50;;
64857;SDS011;51335;51.148;6.950;2023-03-23T02:53:02;3.33;;;2.30;;
64857;SDS011;51335;51.148;6.950;2023-03-23T02:53:38;5.03;;;2.30;;
64857;SDS011;51335;51.148;6.950;2023-03-23T02:54:11;3.28;;;2.20;;
64857;SDS011;51335;51.148;6.950;2023-03-23T02:54:43;6.25;;;2.22;;
64857;SDS011;51335;51.148;6.950;2023-03-23T02:55:16;4.32;;;2.40;;
64857;SDS011;51335;51.148;6.950;2023-03-23T02:55:48;3.67;;;2.20;;
64857;SDS011;51335;51.148;6.950;2023-03-23T02:56:20;4.10;;;2.40;;
64857;SDS011;51335;51.148;6.950;2023-03-23T02:56:55;4.07;;;2.17;;
64857;SDS011;51335;51.148;6.950;2023-03-23T02:57:27;6.32;;;2.53;;
64857;SDS011;51335;51.148;6.950;2023-03-23T02:57:58;3.85;;;2.38;;
64857;SDS011;51335;51.148;6.950;2023-03-23T02:58:28;3.20;;;2.40;;
64857;SDS011;51335;51.148;6.950;2023-03-23T02:58:59;4.90;;;2.10;;
64857;SDS011;51335;51.148;6.950;2023-03-23T02:59:29;3.05;;;2.10;;
64857;SDS011;51335;51.148;6.950;2023-03-23T02:59:59;5.25;;;2.40;;
64857;SDS011;51335;51.148;6.950;2023-03-23T03:00:30;3.08;;;2.35;;
64857;SDS011;51335;51.148;6.950;2023-03-23T03:01:11;3.53;;;2.33;;
64857;SDS011;51335;51.148;6.950;2023-03-23T03:01:48;4.22;;;2.40;;
64857;SDS011;51335;51.148;6.950;2023-03-23T03:02:23;4.13;;;2.22;;
64857;SDS011;51335;51.148;6.950;2023-03-23T03:02:56;5.05;;;2.28;;
64857;SDS011;51335;51.148;6.950;2023-03-23T03:03:28;2.95;;;2.22;;
64857;SDS011;51335;51.148;6.950;2023-03-23T03:04:00;3.60;;;2.10;;
64857;SDS011;51335;51.148;6.950;2023-03-23T03:04:34;3.63;;;2.17;;
64857;SDS011;51335;51.148;6.950;2023-03-23T03:06:54;2.80;;;2.10;;
64857;SDS011;51335;51.148;6.950;2023-03-23T03:09:22;3.33;;;2.13;;
64857;SDS011;51335;51.148;6.950;2023-03-23T03:10:22;3.58;;;2.30;;
64857;SDS011;51335;51.148;6.950;2023-03-23T03:11:05;3.75;;;2.13;;
64857;SDS011;51335;51.148;6.950;2023-03-23T03:11:38;4.35;;;2.25;;
64857;SDS011;51335;51.148;6.950;2023-03-23T03:13:01;5.63;;;2.13;;
64857;SDS011;51335;51.148;6.950;2023-03-23T03:14:31;2.13;;;1.90;;
64857;SDS011;51335;51.148;6.950;2023-03-23T03:15:15;3.13;;;2.22;;
64857;SDS011;51335;51.148;6.950;2023-03-23T03:15:55;2.90;;;2.22;;
64857;SDS011;51335;51.148;6.950;2023-03-23T03:16:49;3.45;;;1.95;;
64857;SDS011;51335;51.148;6.950;2023-03-23T03:17:26;3.33;;;2.00;;
64857;SDS011;51335;51.148;6.950;2023-03-23T03:18:09;6.28;;;2.25;;
64857;SDS011;51335;51.148;6.950;2023-03-23T03:18:54;3.63;;;2.10;;
64857;SDS011;51335;51.148;6.950;2023-03-23T03:19:31;2.78;;;2.10;;
64857;SDS011;51335;51.148;6.950;2023-03-23T03:20:05;4.28;;;2.38;;
64857;SDS011;51335;51.148;6.950;2023-03-23T03:20:38;6.07;;;2.30;;
64857;SDS011;51335;51.148;6.950;2023-03-23T03:21:13;3.22;;;2.20;;
64857;SDS011;51335;51.148;6.950;2023-03-23T03:21:48;3.50;;;1.90;;
64857;SDS011;51335;51.148;6.950;2023-03-23T03:22:20;3.72;;;2.10;;
64857;SDS011;51335;51.148;6.950;2023-03-23T03:22:51;2.63;;;2.00;;
64857;SDS011;51335;51.148;6.950;2023-03-23T03:23:23;4.45;;;2.13;;
64857;SDS011;51335;51.148;6.950;2023-03-23T03:23:58;5.22;;;2.20;;
64857;SDS011;51335;51.148;6.950;2023-03-23T03:24:30;2.95;;;1.90;;
64857;SDS011;51335;51.148;6.950;2023-03-23T03:25:01;3.35;;;1.95;;
64857;SDS011;51335;51.148;6.950;2023-03-23T03:25:32;4.43;;;2.00;;
64857;SDS011;51335;51.148;6.950;2023-03-23T03:26:02;4.10;;;2.00;;
64857;SDS011;51335;51.148;6.950;2023-03-23T03:26:34;5.15;;;2.00;;
64857;SDS011;51335;51.148;6.950;2023-03-23T03:27:05;5.07;;;2.03;;
64857;SDS011;51335;51.148;6.950;2023-03-23T03:27:42;4.28;;;2.08;;
64857;SDS011;51335;51.148;6.950;2023-03-23T03:28:16;4.50;;;2.10;;
64857;SDS011;51335;51.148;6.950;2023-03-23T03:28:47;3.40;;;1.88;;
64857;SDS011;51335;51.148;6.950;2023-03-23T03:29:22;2.22;;;1.88;;
64857;SDS011;51335;51.148;6.950;2023-03-23T03:29:56;3.05;;;1.90;;
64857;SDS011;51335;51.148;6.950;2023-03-23T03:30:30;3.25;;;1.95;;
64857;SDS011;51335;51.148;6.950;2023-03-23T03:31:03;2.95;;;1.92;;
64857;SDS011;51335;51.148;6.950;2023-03-23T03:31:36;3.13;;;1.80;;
64857;SDS011;51335;51.148;6.950;2023-03-23T03:32:11;4.20;;;1.92;;
64857;SDS011;51335;51.148;6.950;2023-03-23T03:32:44;2.92;;;1.90;;
64857;SDS011;51335;51.148;6.950;2023-03-23T03:33:18;2.83;;;1.70;;
64857;SDS011;51335;51.148;6.950;2023-03-23T03:33:49;2.58;;;1.80;;
64857;SDS011;51335;51.148;6.950;2023-03-23T03:34:20;2.88;;;2.08;;
64857;SDS011;51335;51.148;6.950;2023-03-23T03:34:51;6.13;;;2.00;;
64857;SDS011;51335;51.148;6.950;2023-03-23T03:35:22;3.53;;;1.67;;
64857;SDS011;51335;51.148;6.950;2023-03-23T03:35:54;2.65;;;1.70;;
64857;SDS011;51335;51.148;6.950;2023-03-23T03:36:26;5.07;;;2.00;;
64857;SDS011;51335;51.148;6.950;2023-03-23T03:36:59;3.50;;;1.90;;